createdAt,value
2023-04-20T00:02:26.943Z,6.27
2023-04-20T00:04:55.717Z,7.00
2023-04-20T00:07:27.355Z,4.50
2023-04-20T00:09:55.970Z,2.63
2023-04-20T00:12:24.590Z,4.60
2023-04-20T00:14:53.377Z,3.67
2023-04-20T00:17:22.498Z,3.93
2023-04-20T00:19:51.117Z,5.57
2023-04-20T00:22:20.812Z,4.90
2023-04-20T00:24:50.798Z,6.33
2023-04-20T00:27:19.575Z,6.30
2023-04-20T00:29:48.204Z,4.20
2023-04-20T00:32:16.803Z,4.23
2023-04-20T00:34:45.442Z,5.10
2023-04-20T00:37:14.051Z,4.53
2023-04-20T00:39:42.604Z,9.23
2023-04-20T00:42:12.534Z,9.57
2023-04-20T00:44:41.125Z,7.07
2023-04-20T00:47:09.750Z,4.70
2023-04-20T00:49:38.572Z,13.17
2023-04-20T00:52:07.389Z,5.30
2023-04-20T00:54:36.967Z,5.60
2023-04-20T00:57:05.799Z,4.90
2023-04-20T00:59:35.754Z,6.70
2023-04-20T01:02:04.541Z,5.97
2023-04-20T01:04:34.870Z,5.80
2023-04-20T01:07:03.802Z,5.20
2023-04-20T01:09:32.441Z,3.87
2023-04-20T01:12:01.716Z,4.03
2023-04-20T01:14:30.440Z,3.93
2023-04-20T01:17:00.415Z,4.23
2023-04-20T01:19:29.040Z,6.20
2023-04-20T01:21:57.595Z,7.83
2023-04-20T01:24:27.633Z,5.70
2023-04-20T01:26:56.351Z,6.53
2023-04-20T01:29:24.927Z,6.20
2023-04-20T01:31:53.733Z,8.97
2023-04-20T01:34:22.511Z,9.20
2023-04-20T01:36:51.167Z,6.37
2023-04-20T01:39:20.284Z,8.20
2023-04-20T01:41:50.710Z,5.50
2023-04-20T01:44:19.358Z,9.67
2023-04-20T01:46:48.004Z,5.27
2023-04-20T01:49:16.967Z,3.97
2023-04-20T01:51:45.761Z,7.10
2023-04-20T01:54:14.303Z,4.83
2023-04-20T01:56:42.855Z,5.17
2023-04-20T01:59:12.786Z,7.37
2023-04-20T02:01:41.321Z,5.60
2023-04-20T02:04:10.217Z,6.70
2023-04-20T02:06:38.803Z,6.03
2023-04-20T02:09:09.113Z,5.97
2023-04-20T02:11:37.738Z,7.17
2023-04-20T02:14:06.389Z,5.73
2023-04-20T02:16:36.618Z,5.10
2023-04-20T02:19:05.289Z,7.00
2023-04-20T02:21:33.897Z,6.90
2023-04-20T02:24:02.558Z,6.00
2023-04-20T02:26:31.126Z,6.77
2023-04-20T02:28:59.743Z,6.70
2023-04-20T02:31:28.488Z,5.17
2023-04-20T02:33:58.646Z,5.37
2023-04-20T02:36:27.263Z,4.73
2023-04-20T02:38:55.926Z,6.87
2023-04-20T02:41:24.667Z,9.43
2023-04-20T02:43:53.245Z,7.83
2023-04-20T02:46:21.880Z,7.83
2023-04-20T02:48:50.566Z,5.87
2023-04-20T02:51:21.528Z,4.90
2023-04-20T02:53:50.110Z,10.23
2023-04-20T02:56:18.975Z,6.80
2023-04-20T02:58:48.607Z,9.43
2023-04-20T03:01:17.226Z,5.13
2023-04-20T03:03:46.224Z,6.43
2023-04-20T03:06:15.081Z,5.20
2023-04-20T03:08:45.022Z,8.00
2023-04-20T03:11:13.777Z,6.00
2023-04-20T03:13:42.555Z,8.43
2023-04-20T03:16:11.663Z,4.90
2023-04-20T03:18:41.041Z,6.87
2023-04-20T03:21:10.113Z,10.17
2023-04-20T03:23:38.704Z,6.07
2023-04-20T03:26:08.704Z,8.10
2023-04-20T03:28:37.283Z,10.10
2023-04-20T03:31:06.627Z,4.90
2023-04-20T03:33:35.267Z,5.00
2023-04-20T03:36:05.763Z,6.30
2023-04-20T03:38:34.398Z,5.67
2023-04-20T03:41:02.966Z,7.27
2023-04-20T03:43:32.906Z,7.63
2023-04-20T03:46:01.615Z,5.93
2023-04-20T03:48:30.199Z,6.90
2023-04-20T03:50:58.921Z,5.73
2023-04-20T03:53:29.007Z,5.83
2023-04-20T03:55:57.651Z,6.87
2023-04-20T03:58:26.458Z,12.00
2023-04-20T04:01:02.299Z,9.27
2023-04-20T04:03:31.218Z,15.13
2023-04-20T04:05:59.923Z,9.60
2023-04-20T04:08:28.559Z,7.60
2023-04-20T04:10:57.164Z,8.70
2023-04-20T04:13:25.907Z,15.10
2023-04-20T04:15:54.599Z,7.80
2023-04-20T04:18:24.558Z,13.30
2023-04-20T04:20:53.164Z,14.20
2023-04-20T04:23:21.802Z,6.40
2023-04-20T04:25:51.205Z,9.93
2023-04-20T04:28:19.850Z,6.13
2023-04-20T04:30:48.436Z,4.50
2023-04-20T04:33:18.994Z,7.87
2023-04-20T04:35:49.461Z,7.80
2023-04-20T04:38:18.165Z,6.80
2023-04-20T04:40:46.771Z,4.93
2023-04-20T04:43:16.027Z,6.60
2023-04-20T04:45:45.644Z,8.83
2023-04-20T04:48:14.559Z,6.50
2023-04-20T04:50:43.228Z,5.20
2023-04-20T04:53:13.235Z,15.73
2023-04-20T04:55:41.846Z,7.33
2023-04-20T04:58:10.719Z,7.00
2023-04-20T05:00:40.162Z,12.70
2023-04-20T05:03:08.877Z,10.20
2023-04-20T05:05:38.059Z,8.27
2023-04-20T05:08:06.796Z,8.83
2023-04-20T05:10:36.808Z,10.00
2023-04-20T05:13:05.799Z,6.53
2023-04-20T05:15:34.567Z,8.90
2023-04-20T05:18:03.238Z,9.10
2023-04-20T05:20:31.852Z,7.47
2023-04-20T05:23:00.495Z,16.73
2023-04-20T05:25:29.148Z,8.83
2023-04-20T05:27:59.144Z,10.50
2023-04-20T05:30:27.854Z,5.47
2023-04-20T05:32:56.540Z,11.00
2023-04-20T05:35:25.402Z,12.23
2023-04-20T05:37:53.985Z,9.30
2023-04-20T05:40:22.662Z,12.30
2023-04-20T05:42:51.725Z,9.63
2023-04-20T05:45:21.693Z,7.33
2023-04-20T05:47:54.928Z,8.13
2023-04-20T05:50:24.598Z,14.30
2023-04-20T05:52:54.131Z,7.07
2023-04-20T05:55:23.302Z,15.37
2023-04-20T05:57:52.414Z,14.33
2023-04-20T06:00:25.734Z,11.40
2023-04-20T06:02:55.570Z,7.83
2023-04-20T06:05:24.441Z,10.87
2023-04-20T06:07:53.208Z,10.43
2023-04-20T06:10:22.228Z,11.33
2023-04-20T06:12:50.992Z,8.37
2023-04-20T06:15:19.823Z,7.77
2023-04-20T06:17:49.802Z,12.70
2023-04-20T06:20:19.895Z,15.43
2023-04-20T06:22:49.792Z,10.30
2023-04-20T06:25:18.791Z,11.10
2023-04-20T06:27:47.603Z,16.33
2023-04-20T06:30:16.404Z,11.07
2023-04-20T06:32:45.132Z,10.63
2023-04-20T06:35:15.511Z,14.30
2023-04-20T06:37:44.142Z,10.93
2023-04-20T06:40:14.949Z,11.07
2023-04-20T06:42:44.698Z,17.43
2023-04-20T06:45:13.321Z,19.23
2023-04-20T06:47:42.532Z,16.30
2023-04-20T06:50:11.678Z,13.37
2023-04-20T06:52:42.266Z,14.03
2023-04-20T06:55:11.124Z,13.97
2023-04-20T06:57:39.748Z,18.33
2023-04-20T07:00:09.995Z,10.17
2023-04-20T07:02:46.097Z,10.33
2023-04-20T07:05:14.992Z,8.27
2023-04-20T07:07:45.386Z,11.80
2023-04-20T07:10:15.245Z,11.87
2023-04-20T07:12:44.440Z,8.40
2023-04-20T07:15:13.637Z,8.13
2023-04-20T07:17:42.312Z,9.73
2023-04-20T07:20:11.402Z,8.43
2023-04-20T07:22:40.296Z,9.77
2023-04-20T07:25:11.924Z,9.30
2023-04-20T07:27:41.931Z,12.47
2023-04-20T07:30:11.456Z,10.07
2023-04-20T07:32:41.562Z,9.60
2023-04-20T07:35:11.162Z,9.97
2023-04-20T07:37:40.575Z,12.10
2023-04-20T07:40:11.792Z,9.73
2023-04-20T07:42:40.472Z,15.97
2023-04-20T07:45:11.076Z,9.03
2023-04-20T07:47:40.462Z,6.93
2023-04-20T07:50:09.683Z,8.60
2023-04-20T07:52:38.426Z,11.33
2023-04-20T07:55:11.510Z,11.93
2023-04-20T07:57:42.540Z,11.40
2023-04-20T08:00:13.373Z,9.40
2023-04-20T08:02:42.302Z,9.37
2023-04-20T08:05:11.459Z,8.30
2023-04-20T08:07:40.721Z,8.90
2023-04-20T08:10:10.560Z,9.80
2023-04-20T08:12:41.193Z,9.33
2023-04-20T08:15:11.277Z,12.73
2023-04-20T08:17:39.963Z,7.80
2023-04-20T08:20:10.588Z,20.33
2023-04-20T08:22:39.777Z,11.83
2023-04-20T08:25:08.996Z,12.93
2023-04-20T08:27:37.731Z,12.50
2023-04-20T08:30:09.160Z,8.30
2023-04-20T08:32:37.830Z,11.80
2023-04-20T08:35:07.452Z,11.30
2023-04-20T08:37:37.510Z,11.33
2023-04-20T08:40:07.223Z,8.10
2023-04-20T08:42:35.858Z,7.60
2023-04-20T08:45:04.791Z,9.87
2023-04-20T08:47:35.559Z,6.67
2023-04-20T08:50:05.341Z,9.50
2023-04-20T08:52:35.529Z,8.53
2023-04-20T08:55:04.504Z,6.93
2023-04-20T08:57:33.225Z,12.90
2023-04-20T09:00:07.803Z,11.50
2023-04-20T09:02:38.203Z,7.70
2023-04-20T09:05:08.740Z,8.20
2023-04-20T09:07:37.462Z,10.30
2023-04-20T09:10:07.080Z,7.60
2023-04-20T09:12:42.452Z,7.10
2023-04-20T09:15:11.721Z,6.60
2023-04-20T09:17:41.935Z,8.50
2023-04-20T09:20:11.767Z,9.23
2023-04-20T09:22:40.512Z,16.40
2023-04-20T09:25:15.800Z,6.83
2023-04-20T09:27:44.427Z,9.10
2023-04-20T09:30:13.805Z,8.03
2023-04-20T09:32:43.859Z,12.33
2023-04-20T09:35:12.491Z,18.03
2023-04-20T09:37:48.861Z,8.47
2023-04-20T09:40:17.615Z,7.43
2023-04-20T09:42:46.872Z,6.87
2023-04-20T09:45:16.676Z,8.67
2023-04-20T09:47:47.953Z,7.00
2023-04-20T09:50:26.739Z,9.47
2023-04-20T09:53:01.374Z,6.43
2023-04-20T09:55:31.934Z,7.43
2023-04-20T09:58:03.412Z,11.30
2023-04-20T10:00:32.264Z,11.73
2023-04-20T10:03:02.530Z,6.97
2023-04-20T10:05:35.680Z,11.30
2023-04-20T10:08:04.806Z,7.87
2023-04-20T10:10:44.732Z,6.33
2023-04-20T10:13:13.578Z,7.87
2023-04-20T10:15:43.357Z,9.50
2023-04-20T10:18:22.769Z,7.07
2023-04-20T10:20:51.580Z,7.77
2023-04-20T10:23:20.391Z,7.67
2023-04-20T10:25:59.051Z,9.63
2023-04-20T10:28:39.805Z,7.53
2023-04-20T10:31:12.839Z,7.57
2023-04-20T10:33:53.460Z,8.97
2023-04-20T10:36:29.929Z,16.13
2023-04-20T10:38:58.963Z,7.53
2023-04-20T10:41:27.958Z,11.20
2023-04-20T10:43:56.638Z,7.83
2023-04-20T10:46:26.209Z,7.00
2023-04-20T10:48:57.569Z,7.70
2023-04-20T10:51:26.492Z,7.07
2023-04-20T10:54:02.432Z,5.17
2023-04-20T10:56:37.953Z,5.47
2023-04-20T10:59:10.028Z,7.37
2023-04-20T11:01:38.897Z,8.53
2023-04-20T11:04:09.565Z,5.83
2023-04-20T11:06:39.445Z,10.70
2023-04-20T11:09:20.132Z,7.47
2023-04-20T11:12:00.144Z,6.70
2023-04-20T11:14:29.184Z,8.70
2023-04-20T11:16:57.907Z,7.93
2023-04-20T11:19:29.304Z,7.50
2023-04-20T11:21:58.472Z,9.77
2023-04-20T11:24:28.385Z,8.37
2023-04-20T11:26:57.984Z,7.23
2023-04-20T11:29:31.146Z,10.53
2023-04-20T11:32:00.741Z,8.47
2023-04-20T11:34:31.143Z,8.70
2023-04-20T11:37:05.378Z,10.40
2023-04-20T11:39:34.241Z,8.17
2023-04-20T11:42:03.294Z,8.43
2023-04-20T11:44:31.941Z,7.53
2023-04-20T11:47:01.864Z,7.60
2023-04-20T11:49:31.997Z,7.53
2023-04-20T11:52:00.710Z,6.77
2023-04-20T11:54:32.227Z,5.80
2023-04-20T11:57:00.874Z,5.67
2023-04-20T11:59:29.472Z,6.37
2023-04-20T12:01:58.346Z,6.83
2023-04-20T12:04:28.051Z,6.20
2023-04-20T12:06:59.384Z,8.50
2023-04-20T12:09:28.054Z,6.00
2023-04-20T12:11:57.693Z,8.33
2023-04-20T12:14:27.246Z,6.67
2023-04-20T12:16:58.035Z,8.87
2023-04-20T12:19:27.198Z,9.03
2023-04-20T12:21:55.962Z,5.40
2023-04-20T12:24:26.183Z,7.13
2023-04-20T12:26:54.860Z,5.80
2023-04-20T12:29:23.474Z,5.60
2023-04-20T12:31:52.181Z,7.07
2023-04-20T12:34:21.307Z,5.77
2023-04-20T12:36:50.135Z,7.83
2023-04-20T12:39:18.759Z,6.30
2023-04-20T12:41:48.717Z,9.50
2023-04-20T12:44:17.565Z,5.40
2023-04-20T12:46:46.651Z,5.57
2023-04-20T12:49:15.391Z,4.40
2023-04-20T12:51:44.144Z,5.70
2023-04-20T12:54:12.945Z,8.80
2023-04-20T12:56:41.559Z,6.40
2023-04-20T12:59:11.582Z,5.80
2023-04-20T13:01:40.416Z,6.30
2023-04-20T13:04:09.185Z,9.40
2023-04-20T13:06:37.961Z,5.90
2023-04-20T13:09:07.091Z,5.27
2023-04-20T13:11:35.924Z,6.20
2023-04-20T13:14:04.960Z,4.70
2023-04-20T13:16:34.982Z,6.17
2023-04-20T13:19:04.090Z,7.20
2023-04-20T13:21:33.304Z,9.20
2023-04-20T13:24:01.894Z,5.90
2023-04-20T13:26:30.624Z,5.80
2023-04-20T13:28:59.344Z,6.60
2023-04-20T13:31:28.122Z,6.10
2023-04-20T13:33:58.160Z,7.60
2023-04-20T13:36:28.180Z,5.00
2023-04-20T13:38:57.545Z,5.53
2023-04-20T13:41:26.439Z,6.43
2023-04-20T13:43:55.153Z,5.93
2023-04-20T13:46:23.930Z,8.40
2023-04-20T13:48:52.721Z,6.83
2023-04-20T13:51:22.733Z,6.80
2023-04-20T13:53:51.352Z,6.27
2023-04-20T13:56:20.016Z,5.70
2023-04-20T13:58:48.655Z,5.90
2023-04-20T14:01:17.543Z,4.53
2023-04-20T14:03:46.441Z,5.80
2023-04-20T14:06:15.375Z,4.90
2023-04-20T14:08:45.496Z,6.27
2023-04-20T14:11:14.208Z,6.30
2023-04-20T14:13:44.168Z,8.70
2023-04-20T14:16:14.315Z,5.77
2023-04-20T14:18:43.094Z,6.70
2023-04-20T14:21:11.750Z,10.53
2023-04-20T14:23:40.413Z,10.30
2023-04-20T14:26:10.461Z,6.90
2023-04-20T14:28:39.136Z,5.33
2023-04-20T14:31:07.798Z,5.73
2023-04-20T14:33:37.030Z,6.17
2023-04-20T14:36:05.963Z,5.83
2023-04-20T14:38:34.713Z,5.37
2023-04-20T14:41:03.350Z,5.27
2023-04-20T14:43:34.513Z,6.53
2023-04-20T14:46:03.250Z,5.80
2023-04-20T14:48:31.969Z,5.20
2023-04-20T14:51:00.697Z,6.37
2023-04-20T14:53:30.557Z,6.00
2023-04-20T14:56:00.142Z,5.70
2023-04-20T14:58:28.881Z,6.57
2023-04-20T15:00:58.863Z,7.53
2023-04-20T15:03:27.777Z,5.73
2023-04-20T15:05:59.743Z,6.03
2023-04-20T15:08:28.522Z,7.00
2023-04-20T15:10:57.291Z,5.97
2023-04-20T15:13:26.190Z,6.47
2023-04-20T15:15:55.450Z,7.00
2023-04-20T15:18:25.651Z,7.03
2023-04-20T15:20:54.415Z,8.17
2023-04-20T15:23:23.338Z,9.93
2023-04-20T15:25:51.973Z,9.33
2023-04-20T15:28:20.632Z,9.63
2023-04-20T15:30:49.276Z,6.90
2023-04-20T15:33:18.030Z,9.23
2023-04-20T15:35:48.032Z,7.47
2023-04-20T15:38:16.709Z,7.23
2023-04-20T15:40:46.630Z,7.80
2023-04-20T15:43:15.304Z,8.83
2023-04-20T15:45:44.953Z,9.47
2023-04-20T15:48:13.739Z,14.33
2023-04-20T15:50:42.380Z,8.87
2023-04-20T15:53:12.416Z,10.43
2023-04-20T15:55:41.070Z,10.80
2023-04-20T15:58:10.058Z,9.20
2023-04-20T16:00:40.548Z,9.30
2023-04-20T16:03:09.526Z,11.40
2023-04-20T16:05:38.283Z,11.30
2023-04-20T16:08:07.022Z,10.77
2023-04-20T16:10:38.166Z,10.60
2023-04-20T16:13:07.081Z,11.90
2023-04-20T16:15:35.946Z,9.33
2023-04-20T16:18:05.646Z,9.77
2023-04-20T16:20:34.370Z,11.40
2023-04-20T16:23:03.056Z,11.87
2023-04-20T16:25:33.945Z,10.70
2023-04-20T16:28:04.036Z,10.57
2023-04-20T16:30:33.383Z,8.60
2023-04-20T16:33:02.189Z,12.50
2023-04-20T16:35:30.872Z,8.63
2023-04-20T16:37:59.562Z,8.77
2023-04-20T16:40:28.538Z,9.17
2023-04-20T16:42:57.421Z,12.47
2023-04-20T16:45:27.479Z,10.30
2023-04-20T16:47:56.276Z,15.30
2023-04-20T16:50:24.870Z,9.70
2023-04-20T16:52:53.547Z,10.90
2023-04-20T16:55:22.740Z,11.10
2023-04-20T16:57:51.350Z,8.73
2023-04-20T17:00:20.588Z,13.10
2023-04-20T17:02:51.842Z,10.93
2023-04-20T17:05:20.625Z,8.80
2023-04-20T17:07:49.375Z,12.37
2023-04-20T17:10:18.192Z,12.87
2023-04-20T17:12:46.855Z,11.77
2023-04-20T17:15:15.633Z,16.10
2023-04-20T17:17:44.290Z,13.50
2023-04-20T17:20:14.494Z,14.33
2023-04-20T17:22:43.124Z,12.27
2023-04-20T17:25:11.797Z,10.80
2023-04-20T17:27:40.441Z,14.53
2023-04-20T17:30:10.201Z,13.07
2023-04-20T17:32:38.822Z,12.87
2023-04-20T17:35:08.041Z,16.10
2023-04-20T17:37:38.087Z,11.80
2023-04-20T17:40:08.279Z,15.20
2023-04-20T17:42:36.930Z,16.50
2023-04-20T17:45:06.644Z,8.40
2023-04-20T17:47:35.461Z,10.37
2023-04-20T17:50:04.544Z,8.90
2023-04-20T17:52:33.164Z,8.07
2023-04-20T17:55:03.312Z,8.53
2023-04-20T17:57:32.010Z,8.77
2023-04-20T18:00:00.684Z,10.40
2023-04-20T18:02:29.532Z,13.33
2023-04-20T18:04:59.577Z,8.20
2023-04-20T18:07:28.618Z,8.70
2023-04-20T18:09:57.233Z,10.17
2023-04-20T18:12:27.295Z,9.50
2023-04-20T18:14:56.010Z,13.50
2023-04-20T18:17:24.709Z,8.53
2023-04-20T18:19:53.330Z,8.77
2023-04-20T18:22:21.997Z,8.37
2023-04-20T18:24:50.652Z,10.60
2023-04-20T18:27:19.304Z,8.63
2023-04-20T18:29:49.490Z,11.50
2023-04-20T18:32:18.131Z,8.27
2023-04-20T18:34:46.869Z,7.40
2023-04-20T18:37:15.557Z,8.63
2023-04-20T18:39:44.278Z,12.13
2023-04-20T18:42:12.928Z,15.63
2023-04-20T18:44:41.623Z,9.70
2023-04-20T18:47:11.720Z,8.43
2023-04-20T18:49:40.398Z,8.70
2023-04-20T18:52:09.195Z,8.27
2023-04-20T18:54:38.604Z,10.07
2023-04-20T18:57:07.774Z,8.70
2023-04-20T18:59:36.456Z,7.77
2023-04-20T19:02:05.163Z,11.63
2023-04-20T19:04:36.233Z,10.33
2023-04-20T19:07:06.197Z,15.73
2023-04-20T19:09:34.834Z,9.90
2023-04-20T19:12:03.556Z,10.53
2023-04-20T19:14:32.481Z,10.30
2023-04-20T19:17:02.155Z,9.13
2023-04-20T19:19:30.874Z,9.00
2023-04-20T19:22:01.059Z,10.03
2023-04-20T19:24:29.768Z,10.57
2023-04-20T19:26:58.610Z,11.70
2023-04-20T19:29:27.293Z,10.17
2023-04-20T19:31:55.986Z,10.60
2023-04-20T19:34:24.661Z,9.07
2023-04-20T19:36:53.834Z,10.13
2023-04-20T19:39:23.937Z,15.40
2023-04-20T19:41:52.590Z,13.53
2023-04-20T19:44:21.306Z,11.07
2023-04-20T19:46:50.741Z,11.50
2023-04-20T19:49:19.636Z,10.10
2023-04-20T19:51:48.518Z,12.50
2023-04-20T19:54:17.540Z,12.00
2023-04-20T19:56:47.512Z,9.40
2023-04-20T19:59:16.203Z,12.40
2023-04-20T20:01:44.920Z,9.90
2023-04-20T20:04:13.979Z,10.10
2023-04-20T20:06:43.938Z,10.40
2023-04-20T20:09:13.035Z,12.00
2023-04-20T20:11:48.021Z,10.53
2023-04-20T20:14:18.247Z,10.30
2023-04-20T20:16:46.937Z,12.07
2023-04-20T20:19:16.083Z,11.57
2023-04-20T20:21:45.328Z,11.60
2023-04-20T20:24:14.000Z,12.07
2023-04-20T20:26:45.051Z,11.37
2023-04-20T20:29:13.830Z,13.67
2023-04-20T20:31:44.109Z,13.63
2023-04-20T20:34:12.857Z,11.47
2023-04-20T20:36:44.853Z,13.17
2023-04-20T20:39:13.942Z,11.90
2023-04-20T20:41:43.317Z,12.67
2023-04-20T20:44:12.104Z,12.90
2023-04-20T20:46:40.948Z,13.73
2023-04-20T20:49:10.962Z,14.43
2023-04-20T20:51:39.670Z,14.80
2023-04-20T20:54:08.314Z,17.80
2023-04-20T20:56:37.020Z,15.43
2023-04-20T20:59:05.692Z,14.43
2023-04-20T21:01:34.317Z,15.10
2023-04-20T21:04:04.548Z,13.43
2023-04-20T21:06:34.665Z,15.33
2023-04-20T21:09:04.255Z,13.63
2023-04-20T21:11:32.957Z,17.23
2023-04-20T21:14:02.984Z,14.70
2023-04-20T21:16:31.648Z,11.47
2023-04-20T21:19:00.333Z,13.10
2023-04-20T21:21:29.016Z,11.80
2023-04-20T21:23:59.042Z,13.10
2023-04-20T21:26:28.372Z,12.90
2023-04-20T21:28:56.981Z,16.20
2023-04-20T21:31:25.696Z,13.93
2023-04-20T21:33:54.301Z,14.17
2023-04-20T21:36:22.906Z,16.03
2023-04-20T21:38:51.515Z,13.43
2023-04-20T21:41:21.636Z,13.20
2023-04-20T21:43:52.659Z,13.70
2023-04-20T21:46:21.310Z,14.60
2023-04-20T21:48:51.447Z,14.13
2023-04-20T21:51:20.162Z,12.93
2023-04-20T21:53:48.787Z,15.23
2023-04-20T21:56:18.344Z,14.47
2023-04-20T21:58:48.279Z,13.60
2023-04-20T22:01:16.940Z,15.13
2023-04-20T22:03:45.742Z,13.03
2023-04-20T22:06:14.438Z,15.83
2023-04-20T22:08:43.095Z,13.90
2023-04-20T22:11:11.824Z,12.63
2023-04-20T22:13:40.536Z,13.13
2023-04-20T22:16:10.549Z,14.13
2023-04-20T22:18:39.197Z,13.83
2023-04-20T22:21:07.822Z,12.30
2023-04-20T22:23:36.679Z,14.23
2023-04-20T22:26:05.850Z,14.83
2023-04-20T22:28:34.457Z,12.90
2023-04-20T22:31:03.459Z,13.50
2023-04-20T22:33:33.463Z,10.83
2023-04-20T22:36:03.264Z,13.90
2023-04-20T22:38:32.393Z,13.63
2023-04-20T22:41:01.216Z,13.07
2023-04-20T22:43:29.797Z,10.93
2023-04-20T22:45:58.525Z,12.47
2023-04-20T22:48:27.470Z,14.87
2023-04-20T22:51:00.598Z,10.70
2023-04-20T22:53:29.773Z,13.10
2023-04-20T22:56:04.354Z,12.47
2023-04-20T22:58:32.974Z,11.77
2023-04-20T23:01:01.742Z,20.60
2023-04-20T23:03:31.088Z,13.07
2023-04-20T23:06:01.321Z,13.73
2023-04-20T23:08:30.075Z,12.60
2023-04-20T23:10:58.945Z,16.70
2023-04-20T23:13:27.648Z,12.50
2023-04-20T23:15:56.489Z,13.73
2023-04-20T23:18:25.275Z,16.00
2023-04-20T23:20:53.914Z,14.53
2023-04-20T23:23:23.850Z,14.27
2023-04-20T23:25:52.512Z,16.57
2023-04-20T23:28:21.158Z,15.90
2023-04-20T23:30:50.007Z,14.10
2023-04-20T23:33:18.816Z,14.47
2023-04-20T23:35:47.432Z,17.40
2023-04-20T23:38:16.088Z,16.40
2023-04-20T23:40:46.080Z,26.20
2023-04-20T23:43:14.708Z,15.67
2023-04-20T23:45:43.377Z,17.63
2023-04-20T23:48:12.097Z,15.37
2023-04-20T23:50:40.805Z,16.77
2023-04-20T23:53:10.176Z,16.43
2023-04-20T23:55:38.745Z,21.23
2023-04-20T23:58:08.652Z,16.50
